sensor_id;sensor_type;location;lat;lon;timestamp;P1;durP1;ratioP1;P2;durP2;ratioP2
57593;SDS011;43423;46.510;6.686;2023-05-06T00:01:30;5.57;;;3.05;;
57593;SDS011;43423;46.510;6.686;2023-05-06T00:03:56;3.47;;;2.72;;
57593;SDS011;43423;46.510;6.686;2023-05-06T00:06:22;4.20;;;2.60;;
57593;SDS011;43423;46.510;6.686;2023-05-06T00:08:47;5.60;;;2.50;;
57593;SDS011;43423;46.510;6.686;2023-05-06T00:11:13;4.47;;;2.83;;
57593;SDS011;43423;46.510;6.686;2023-05-06T00:13:38;6.15;;;3.10;;
57593;SDS011;43423;46.510;6.686;2023-05-06T00:16:04;4.20;;;3.08;;
57593;SDS011;43423;46.510;6.686;2023-05-06T00:18:29;9.32;;;2.80;;
57593;SDS011;43423;46.510;6.686;2023-05-06T00:20:55;4.75;;;2.80;;
57593;SDS011;43423;46.510;6.686;2023-05-06T00:23:20;4.25;;;3.30;;
57593;SDS011;43423;46.510;6.686;2023-05-06T00:25:46;6.95;;;3.00;;
57593;SDS011;43423;46.510;6.686;2023-05-06T00:28:12;4.15;;;2.80;;
57593;SDS011;43423;46.510;6.686;2023-05-06T00:30:37;3.65;;;2.58;;
57593;SDS011;43423;46.510;6.686;2023-05-06T00:33:03;7.40;;;2.90;;
57593;SDS011;43423;46.510;6.686;2023-05-06T00:35:28;3.35;;;2.90;;
57593;SDS011;43423;46.510;6.686;2023-05-06T00:37:56;4.13;;;3.03;;
57593;SDS011;43423;46.510;6.686;2023-05-06T00:40:22;6.88;;;3.10;;
57593;SDS011;43423;46.510;6.686;2023-05-06T00:42:48;5.10;;;2.80;;
57593;SDS011;43423;46.510;6.686;2023-05-06T00:45:14;4.70;;;3.55;;
57593;SDS011;43423;46.510;6.686;2023-05-06T00:47:39;4.40;;;3.17;;
57593;SDS011;43423;46.510;6.686;2023-05-06T00:50:06;4.50;;;2.63;;
57593;SDS011;43423;46.510;6.686;2023-05-06T00:52:32;8.43;;;4.25;;
57593;SDS011;43423;46.510;6.686;2023-05-06T00:54:57;14.10;;;3.17;;
57593;SDS011;43423;46.510;6.686;2023-05-06T00:57:23;7.63;;;3.80;;
57593;SDS011;43423;46.510;6.686;2023-05-06T00:59:49;7.80;;;3.15;;
57593;SDS011;43423;46.510;6.686;2023-05-06T01:02:14;3.85;;;2.75;;
57593;SDS011;43423;46.510;6.686;2023-05-06T01:04:40;6.55;;;2.85;;
57593;SDS011;43423;46.510;6.686;2023-05-06T01:07:20;4.13;;;3.00;;
57593;SDS011;43423;46.510;6.686;2023-05-06T01:10:12;7.32;;;3.28;;
57593;SDS011;43423;46.510;6.686;2023-05-06T01:12:57;5.80;;;3.25;;
57593;SDS011;43423;46.510;6.686;2023-05-06T01:18:10;3.83;;;3.38;;
57593;SDS011;43423;46.510;6.686;2023-05-06T01:20:38;4.40;;;3.58;;
57593;SDS011;43423;46.510;6.686;2023-05-06T01:23:08;7.47;;;3.58;;
57593;SDS011;43423;46.510;6.686;2023-05-06T01:25:37;4.53;;;2.92;;
57593;SDS011;43423;46.510;6.686;2023-05-06T01:28:03;8.23;;;3.45;;
57593;SDS011;43423;46.510;6.686;2023-05-06T01:30:30;3.97;;;3.20;;
57593;SDS011;43423;46.510;6.686;2023-05-06T01:33:17;5.95;;;3.70;;
57593;SDS011;43423;46.510;6.686;2023-05-06T01:41:13;5.03;;;3.40;;
57593;SDS011;43423;46.510;6.686;2023-05-06T01:43:40;5.60;;;3.47;;
57593;SDS011;43423;46.510;6.686;2023-05-06T01:46:19;9.45;;;3.60;;
57593;SDS011;43423;46.510;6.686;2023-05-06T01:48:48;5.00;;;3.67;;
57593;SDS011;43423;46.510;6.686;2023-05-06T01:51:19;6.57;;;3.58;;
57593;SDS011;43423;46.510;6.686;2023-05-06T01:53:45;4.97;;;3.40;;
57593;SDS011;43423;46.510;6.686;2023-05-06T01:56:11;6.90;;;3.38;;
57593;SDS011;43423;46.510;6.686;2023-05-06T01:58:37;4.82;;;3.45;;
57593;SDS011;43423;46.510;6.686;2023-05-06T02:01:03;5.75;;;3.60;;
57593;SDS011;43423;46.510;6.686;2023-05-06T02:03:28;7.55;;;3.78;;
57593;SDS011;43423;46.510;6.686;2023-05-06T02:05:54;9.40;;;3.83;;
57593;SDS011;43423;46.510;6.686;2023-05-06T02:08:19;5.35;;;3.65;;
57593;SDS011;43423;46.510;6.686;2023-05-06T02:10:45;6.90;;;4.10;;
57593;SDS011;43423;46.510;6.686;2023-05-06T02:13:10;9.30;;;4.10;;
57593;SDS011;43423;46.510;6.686;2023-05-06T02:15:36;10.93;;;4.35;;
57593;SDS011;43423;46.510;6.686;2023-05-06T02:18:02;8.43;;;4.38;;
57593;SDS011;43423;46.510;6.686;2023-05-06T02:20:27;7.60;;;4.15;;
57593;SDS011;43423;46.510;6.686;2023-05-06T02:22:53;8.25;;;4.93;;
57593;SDS011;43423;46.510;6.686;2023-05-06T02:25:18;7.55;;;3.92;;
57593;SDS011;43423;46.510;6.686;2023-05-06T02:27:44;6.60;;;3.88;;
57593;SDS011;43423;46.510;6.686;2023-05-06T02:30:10;6.22;;;3.72;;
57593;SDS011;43423;46.510;6.686;2023-05-06T02:32:35;7.63;;;4.38;;
57593;SDS011;43423;46.510;6.686;2023-05-06T02:35:01;7.88;;;3.95;;
57593;SDS011;43423;46.510;6.686;2023-05-06T02:37:27;6.35;;;4.25;;
57593;SDS011;43423;46.510;6.686;2023-05-06T02:39:53;5.32;;;3.70;;
57593;SDS011;43423;46.510;6.686;2023-05-06T02:42:18;6.72;;;4.20;;
57593;SDS011;43423;46.510;6.686;2023-05-06T02:44:45;6.70;;;4.70;;
57593;SDS011;43423;46.510;6.686;2023-05-06T02:47:11;8.57;;;4.13;;
57593;SDS011;43423;46.510;6.686;2023-05-06T02:49:37;5.68;;;3.90;;
57593;SDS011;43423;46.510;6.686;2023-05-06T02:52:02;5.93;;;3.65;;
57593;SDS011;43423;46.510;6.686;2023-05-06T02:54:28;5.53;;;3.80;;
57593;SDS011;43423;46.510;6.686;2023-05-06T02:56:53;5.53;;;3.97;;
57593;SDS011;43423;46.510;6.686;2023-05-06T02:59:19;7.38;;;3.95;;
57593;SDS011;43423;46.510;6.686;2023-05-06T03:01:46;4.93;;;4.35;;
57593;SDS011;43423;46.510;6.686;2023-05-06T03:04:12;5.50;;;3.88;;
57593;SDS011;43423;46.510;6.686;2023-05-06T03:06:37;6.10;;;3.75;;
57593;SDS011;43423;46.510;6.686;2023-05-06T03:09:03;6.03;;;3.78;;
57593;SDS011;43423;46.510;6.686;2023-05-06T03:11:29;5.07;;;3.55;;
57593;SDS011;43423;46.510;6.686;2023-05-06T03:13:56;10.13;;;4.88;;
57593;SDS011;43423;46.510;6.686;2023-05-06T03:16:22;13.32;;;6.60;;
57593;SDS011;43423;46.510;6.686;2023-05-06T03:18:47;15.40;;;7.47;;
57593;SDS011;43423;46.510;6.686;2023-05-06T03:21:13;6.28;;;3.83;;
57593;SDS011;43423;46.510;6.686;2023-05-06T03:23:38;7.65;;;3.95;;
57593;SDS011;43423;46.510;6.686;2023-05-06T03:26:04;5.95;;;3.42;;
57593;SDS011;43423;46.510;6.686;2023-05-06T03:28:30;7.00;;;3.88;;
57593;SDS011;43423;46.510;6.686;2023-05-06T03:30:55;8.52;;;4.78;;
57593;SDS011;43423;46.510;6.686;2023-05-06T03:33:21;5.95;;;3.90;;
57593;SDS011;43423;46.510;6.686;2023-05-06T03:35:46;6.53;;;3.92;;
57593;SDS011;43423;46.510;6.686;2023-05-06T03:38:12;7.18;;;3.80;;
57593;SDS011;43423;46.510;6.686;2023-05-06T03:40:38;6.97;;;4.30;;
57593;SDS011;43423;46.510;6.686;2023-05-06T03:43:03;6.53;;;4.40;;
57593;SDS011;43423;46.510;6.686;2023-05-06T03:45:29;6.75;;;4.28;;
57593;SDS011;43423;46.510;6.686;2023-05-06T03:47:54;10.68;;;4.30;;
57593;SDS011;43423;46.510;6.686;2023-05-06T03:50:20;8.05;;;4.25;;
57593;SDS011;43423;46.510;6.686;2023-05-06T03:52:46;5.85;;;3.90;;
57593;SDS011;43423;46.510;6.686;2023-05-06T03:55:12;9.63;;;4.35;;
57593;SDS011;43423;46.510;6.686;2023-05-06T03:57:37;6.50;;;4.00;;
57593;SDS011;43423;46.510;6.686;2023-05-06T04:00:03;9.05;;;4.47;;
57593;SDS011;43423;46.510;6.686;2023-05-06T04:02:29;9.40;;;5.28;;
57593;SDS011;43423;46.510;6.686;2023-05-06T04:04:55;11.27;;;5.18;;
57593;SDS011;43423;46.510;6.686;2023-05-06T04:07:21;7.05;;;5.07;;
57593;SDS011;43423;46.510;6.686;2023-05-06T04:09:46;9.90;;;4.80;;
57593;SDS011;43423;46.510;6.686;2023-05-06T04:12:12;6.35;;;4.40;;
57593;SDS011;43423;46.510;6.686;2023-05-06T04:14:38;8.68;;;4.70;;
57593;SDS011;43423;46.510;6.686;2023-05-06T04:17:03;12.57;;;5.15;;
57593;SDS011;43423;46.510;6.686;2023-05-06T04:19:29;8.75;;;5.25;;
57593;SDS011;43423;46.510;6.686;2023-05-06T04:21:56;7.90;;;5.18;;
57593;SDS011;43423;46.510;6.686;2023-05-06T04:24:22;7.55;;;4.43;;
57593;SDS011;43423;46.510;6.686;2023-05-06T04:26:48;7.75;;;4.72;;
57593;SDS011;43423;46.510;6.686;2023-05-06T04:29:13;10.43;;;4.38;;
57593;SDS011;43423;46.510;6.686;2023-05-06T04:31:39;10.93;;;5.40;;
57593;SDS011;43423;46.510;6.686;2023-05-06T04:34:04;7.80;;;4.80;;
57593;SDS011;43423;46.510;6.686;2023-05-06T04:36:30;8.13;;;4.78;;
57593;SDS011;43423;46.510;6.686;2023-05-06T04:38:55;6.63;;;4.40;;
57593;SDS011;43423;46.510;6.686;2023-05-06T04:41:21;9.45;;;5.15;;
57593;SDS011;43423;46.510;6.686;2023-05-06T04:43:47;7.35;;;4.57;;
57593;SDS011;43423;46.510;6.686;2023-05-06T04:46:13;8.40;;;5.28;;
57593;SDS011;43423;46.510;6.686;2023-05-06T04:48:39;13.98;;;4.55;;
57593;SDS011;43423;46.510;6.686;2023-05-06T04:51:06;8.98;;;4.45;;
57593;SDS011;43423;46.510;6.686;2023-05-06T04:53:33;5.30;;;4.03;;
57593;SDS011;43423;46.510;6.686;2023-05-06T04:55:59;10.52;;;4.35;;
57593;SDS011;43423;46.510;6.686;2023-05-06T04:58:24;5.55;;;4.50;;
57593;SDS011;43423;46.510;6.686;2023-05-06T05:00:50;8.10;;;4.57;;
57593;SDS011;43423;46.510;6.686;2023-05-06T05:03:15;6.85;;;4.32;;
57593;SDS011;43423;46.510;6.686;2023-05-06T05:05:41;8.80;;;4.55;;
57593;SDS011;43423;46.510;6.686;2023-05-06T05:08:06;9.20;;;4.68;;
57593;SDS011;43423;46.510;6.686;2023-05-06T05:10:32;7.20;;;4.22;;
57593;SDS011;43423;46.510;6.686;2023-05-06T05:12:57;5.57;;;4.30;;
57593;SDS011;43423;46.510;6.686;2023-05-06T05:15:23;7.20;;;4.80;;
57593;SDS011;43423;46.510;6.686;2023-05-06T05:17:48;6.72;;;4.43;;
57593;SDS011;43423;46.510;6.686;2023-05-06T05:20:15;8.57;;;4.78;;
57593;SDS011;43423;46.510;6.686;2023-05-06T05:22:40;6.97;;;4.40;;
57593;SDS011;43423;46.510;6.686;2023-05-06T05:25:06;8.38;;;4.65;;
57593;SDS011;43423;46.510;6.686;2023-05-06T05:27:32;7.88;;;5.15;;
57593;SDS011;43423;46.510;6.686;2023-05-06T05:29:59;11.57;;;5.50;;
57593;SDS011;43423;46.510;6.686;2023-05-06T05:32:25;8.13;;;4.57;;
57593;SDS011;43423;46.510;6.686;2023-05-06T05:34:51;9.27;;;4.93;;
57593;SDS011;43423;46.510;6.686;2023-05-06T05:37:17;7.63;;;4.65;;
57593;SDS011;43423;46.510;6.686;2023-05-06T05:39:42;11.50;;;5.60;;
57593;SDS011;43423;46.510;6.686;2023-05-06T05:42:08;9.18;;;5.70;;
57593;SDS011;43423;46.510;6.686;2023-05-06T05:44:33;10.13;;;6.25;;
57593;SDS011;43423;46.510;6.686;2023-05-06T05:47:00;14.48;;;6.00;;
57593;SDS011;43423;46.510;6.686;2023-05-06T05:49:26;9.20;;;6.07;;
57593;SDS011;43423;46.510;6.686;2023-05-06T05:51:52;10.27;;;5.80;;
57593;SDS011;43423;46.510;6.686;2023-05-06T05:54:17;13.10;;;6.18;;
57593;SDS011;43423;46.510;6.686;2023-05-06T05:56:43;14.50;;;6.47;;
57593;SDS011;43423;46.510;6.686;2023-05-06T05:59:08;12.65;;;6.90;;
57593;SDS011;43423;46.510;6.686;2023-05-06T06:01:33;10.77;;;5.85;;
57593;SDS011;43423;46.510;6.686;2023-05-06T06:03:59;11.23;;;5.78;;
57593;SDS011;43423;46.510;6.686;2023-05-06T06:06:25;12.07;;;6.20;;
57593;SDS011;43423;46.510;6.686;2023-05-06T06:08:50;9.07;;;5.97;;
57593;SDS011;43423;46.510;6.686;2023-05-06T06:11:16;10.63;;;6.00;;
57593;SDS011;43423;46.510;6.686;2023-05-06T06:13:42;9.70;;;6.07;;
57593;SDS011;43423;46.510;6.686;2023-05-06T06:16:07;9.77;;;6.32;;
57593;SDS011;43423;46.510;6.686;2023-05-06T06:18:33;9.88;;;6.32;;
57593;SDS011;43423;46.510;6.686;2023-05-06T06:20:59;9.98;;;6.00;;
57593;SDS011;43423;46.510;6.686;2023-05-06T06:23:24;8.13;;;6.00;;
57593;SDS011;43423;46.510;6.686;2023-05-06T06:25:50;13.15;;;6.53;;
57593;SDS011;43423;46.510;6.686;2023-05-06T06:28:15;10.23;;;6.32;;
57593;SDS011;43423;46.510;6.686;2023-05-06T06:30:41;11.60;;;6.40;;
57593;SDS011;43423;46.510;6.686;2023-05-06T06:33:07;9.48;;;6.20;;
57593;SDS011;43423;46.510;6.686;2023-05-06T06:35:32;8.68;;;6.10;;
57593;SDS011;43423;46.510;6.686;2023-05-06T06:37:59;10.57;;;5.68;;
57593;SDS011;43423;46.510;6.686;2023-05-06T06:40:24;9.82;;;6.00;;
57593;SDS011;43423;46.510;6.686;2023-05-06T06:42:50;12.05;;;6.38;;
57593;SDS011;43423;46.510;6.686;2023-05-06T06:45:15;9.65;;;6.72;;
57593;SDS011;43423;46.510;6.686;2023-05-06T06:47:41;8.65;;;6.18;;
57593;SDS011;43423;46.510;6.686;2023-05-06T06:50:07;10.77;;;6.00;;
57593;SDS011;43423;46.510;6.686;2023-05-06T06:52:33;9.05;;;5.78;;
57593;SDS011;43423;46.510;6.686;2023-05-06T06:54:59;11.57;;;6.30;;
57593;SDS011;43423;46.510;6.686;2023-05-06T06:57:26;11.18;;;6.78;;
57593;SDS011;43423;46.510;6.686;2023-05-06T06:59:51;9.63;;;6.22;;
57593;SDS011;43423;46.510;6.686;2023-05-06T07:02:18;9.40;;;5.55;;
57593;SDS011;43423;46.510;6.686;2023-05-06T07:04:44;10.90;;;6.03;;
57593;SDS011;43423;46.510;6.686;2023-05-06T07:07:10;9.48;;;5.97;;
57593;SDS011;43423;46.510;6.686;2023-05-06T07:09:36;11.07;;;6.25;;
57593;SDS011;43423;46.510;6.686;2023-05-06T07:12:01;7.45;;;5.50;;
57593;SDS011;43423;46.510;6.686;2023-05-06T07:14:27;11.13;;;5.75;;
57593;SDS011;43423;46.510;6.686;2023-05-06T07:16:53;11.48;;;6.13;;
57593;SDS011;43423;46.510;6.686;2023-05-06T07:19:18;9.93;;;6.55;;
57593;SDS011;43423;46.510;6.686;2023-05-06T07:21:44;9.48;;;6.18;;
57593;SDS011;43423;46.510;6.686;2023-05-06T07:24:09;10.10;;;6.22;;
57593;SDS011;43423;46.510;6.686;2023-05-06T07:26:35;10.75;;;6.75;;
57593;SDS011;43423;46.510;6.686;2023-05-06T07:29:01;10.48;;;6.68;;
57593;SDS011;43423;46.510;6.686;2023-05-06T07:31:30;7.95;;;5.88;;
57593;SDS011;43423;46.510;6.686;2023-05-06T07:33:58;12.60;;;6.68;;
57593;SDS011;43423;46.510;6.686;2023-05-06T07:36:24;13.60;;;6.28;;
57593;SDS011;43423;46.510;6.686;2023-05-06T07:38:51;9.32;;;6.40;;
57593;SDS011;43423;46.510;6.686;2023-05-06T07:41:17;9.90;;;6.40;;
57593;SDS011;43423;46.510;6.686;2023-05-06T07:43:43;10.52;;;6.70;;
57593;SDS011;43423;46.510;6.686;2023-05-06T07:46:08;11.55;;;7.55;;
57593;SDS011;43423;46.510;6.686;2023-05-06T07:48:34;9.25;;;6.50;;
57593;SDS011;43423;46.510;6.686;2023-05-06T07:51:01;12.00;;;7.38;;
57593;SDS011;43423;46.510;6.686;2023-05-06T07:53:27;10.40;;;7.05;;
57593;SDS011;43423;46.510;6.686;2023-05-06T07:55:52;9.15;;;6.68;;
57593;SDS011;43423;46.510;6.686;2023-05-06T07:58:21;16.02;;;7.35;;
57593;SDS011;43423;46.510;6.686;2023-05-06T08:00:46;19.60;;;7.68;;
57593;SDS011;43423;46.510;6.686;2023-05-06T08:03:12;14.20;;;7.32;;
57593;SDS011;43423;46.510;6.686;2023-05-06T08:05:37;14.90;;;7.25;;
57593;SDS011;43423;46.510;6.686;2023-05-06T08:08:03;9.57;;;6.72;;
57593;SDS011;43423;46.510;6.686;2023-05-06T08:10:29;8.52;;;5.97;;
57593;SDS011;43423;46.510;6.686;2023-05-06T08:12:55;10.30;;;6.55;;
57593;SDS011;43423;46.510;6.686;2023-05-06T08:15:20;10.45;;;7.03;;
57593;SDS011;43423;46.510;6.686;2023-05-06T08:17:46;11.75;;;6.13;;
57593;SDS011;43423;46.510;6.686;2023-05-06T08:20:12;9.05;;;6.43;;
57593;SDS011;43423;46.510;6.686;2023-05-06T08:22:37;9.60;;;6.45;;
57593;SDS011;43423;46.510;6.686;2023-05-06T08:25:03;9.77;;;6.15;;
57593;SDS011;43423;46.510;6.686;2023-05-06T08:27:29;8.38;;;5.80;;
57593;SDS011;43423;46.510;6.686;2023-05-06T08:29:55;11.02;;;6.40;;
57593;SDS011;43423;46.510;6.686;2023-05-06T08:32:21;7.82;;;6.18;;
57593;SDS011;43423;46.510;6.686;2023-05-06T08:34:47;9.75;;;6.10;;
57593;SDS011;43423;46.510;6.686;2023-05-06T08:37:12;10.45;;;6.50;;
57593;SDS011;43423;46.510;6.686;2023-05-06T08:39:38;12.00;;;7.15;;
57593;SDS011;43423;46.510;6.686;2023-05-06T08:42:03;10.10;;;6.90;;
57593;SDS011;43423;46.510;6.686;2023-05-06T08:44:30;13.18;;;7.18;;
57593;SDS011;43423;46.510;6.686;2023-05-06T08:46:57;9.38;;;6.80;;
57593;SDS011;43423;46.510;6.686;2023-05-06T08:49:23;13.07;;;7.07;;
57593;SDS011;43423;46.510;6.686;2023-05-06T08:51:49;9.88;;;6.30;;
57593;SDS011;43423;46.510;6.686;2023-05-06T08:54:17;10.45;;;6.07;;
57593;SDS011;43423;46.510;6.686;2023-05-06T08:56:51;10.68;;;6.65;;
57593;SDS011;43423;46.510;6.686;2023-05-06T08:59:23;9.25;;;6.57;;
57593;SDS011;43423;46.510;6.686;2023-05-06T09:04:17;10.48;;;6.57;;
57593;SDS011;43423;46.510;6.686;2023-05-06T09:06:43;9.27;;;6.57;;
57593;SDS011;43423;46.510;6.686;2023-05-06T09:09:09;9.63;;;6.40;;
57593;SDS011;43423;46.510;6.686;2023-05-06T09:11:35;12.93;;;6.28;;
57593;SDS011;43423;46.510;6.686;2023-05-06T09:14:07;8.50;;;5.35;;
57593;SDS011;43423;46.510;6.686;2023-05-06T09:16:34;10.15;;;6.10;;
57593;SDS011;43423;46.510;6.686;2023-05-06T09:18:59;9.05;;;6.68;;
57593;SDS011;43423;46.510;6.686;2023-05-06T09:21:30;9.75;;;6.70;;
57593;SDS011;43423;46.510;6.686;2023-05-06T09:23:57;12.07;;;6.53;;
57593;SDS011;43423;46.510;6.686;2023-05-06T09:26:23;9.70;;;6.85;;
57593;SDS011;43423;46.510;6.686;2023-05-06T09:28:51;8.38;;;5.90;;
57593;SDS011;43423;46.510;6.686;2023-05-06T09:31:17;9.60;;;5.70;;
57593;SDS011;43423;46.510;6.686;2023-05-06T09:33:42;12.70;;;6.53;;
57593;SDS011;43423;46.510;6.686;2023-05-06T09:36:08;10.30;;;6.22;;
57593;SDS011;43423;46.510;6.686;2023-05-06T09:38:38;11.82;;;6.55;;
57593;SDS011;43423;46.510;6.686;2023-05-06T09:41:05;11.48;;;6.95;;
57593;SDS011;43423;46.510;6.686;2023-05-06T09:43:31;9.93;;;6.30;;
57593;SDS011;43423;46.510;6.686;2023-05-06T09:45:57;10.45;;;7.28;;
57593;SDS011;43423;46.510;6.686;2023-05-06T09:48:28;10.45;;;7.72;;
57593;SDS011;43423;46.510;6.686;2023-05-06T09:50:55;11.55;;;6.43;;
57593;SDS011;43423;46.510;6.686;2023-05-06T09:53:21;11.43;;;6.70;;
57593;SDS011;43423;46.510;6.686;2023-05-06T09:55:48;12.23;;;7.07;;
57593;SDS011;43423;46.510;6.686;2023-05-06T09:58:15;7.18;;;5.90;;
57593;SDS011;43423;46.510;6.686;2023-05-06T10:00:41;8.27;;;5.95;;
57593;SDS011;43423;46.510;6.686;2023-05-06T10:03:08;6.63;;;5.90;;
57593;SDS011;43423;46.510;6.686;2023-05-06T10:05:34;9.85;;;6.30;;
57593;SDS011;43423;46.510;6.686;2023-05-06T10:08:00;12.10;;;6.50;;
57593;SDS011;43423;46.510;6.686;2023-05-06T10:10:28;7.88;;;5.63;;
57593;SDS011;43423;46.510;6.686;2023-05-06T10:12:54;10.32;;;6.20;;
57593;SDS011;43423;46.510;6.686;2023-05-06T10:15:20;11.32;;;6.10;;
57593;SDS011;43423;46.510;6.686;2023-05-06T10:17:47;10.90;;;5.50;;
57593;SDS011;43423;46.510;6.686;2023-05-06T10:20:16;11.00;;;5.72;;
57593;SDS011;43423;46.510;6.686;2023-05-06T10:22:47;8.48;;;6.05;;
57593;SDS011;43423;46.510;6.686;2023-05-06T10:25:34;7.95;;;5.50;;
57593;SDS011;43423;46.510;6.686;2023-05-06T10:28:05;7.82;;;5.85;;
57593;SDS011;43423;46.510;6.686;2023-05-06T10:30:33;8.25;;;6.32;;
57593;SDS011;43423;46.510;6.686;2023-05-06T10:33:02;8.48;;;6.00;;
57593;SDS011;43423;46.510;6.686;2023-05-06T10:38:05;9.30;;;5.90;;
57593;SDS011;43423;46.510;6.686;2023-05-06T10:40:39;8.88;;;5.50;;
57593;SDS011;43423;46.510;6.686;2023-05-06T10:46:02;10.02;;;5.72;;
57593;SDS011;43423;46.510;6.686;2023-05-06T10:48:28;12.45;;;6.20;;
57593;SDS011;43423;46.510;6.686;2023-05-06T10:53:53;7.00;;;5.45;;
57593;SDS011;43423;46.510;6.686;2023-05-06T10:56:20;9.10;;;6.25;;
57593;SDS011;43423;46.510;6.686;2023-05-06T10:58:46;10.85;;;6.47;;
57593;SDS011;43423;46.510;6.686;2023-05-06T11:01:15;16.27;;;6.00;;
57593;SDS011;43423;46.510;6.686;2023-05-06T11:03:45;15.02;;;6.90;;
57593;SDS011;43423;46.510;6.686;2023-05-06T11:06:10;6.13;;;5.38;;
57593;SDS011;43423;46.510;6.686;2023-05-06T11:08:36;11.98;;;7.22;;
57593;SDS011;43423;46.510;6.686;2023-05-06T11:11:44;9.15;;;5.70;;
57593;SDS011;43423;46.510;6.686;2023-05-06T11:14:12;10.27;;;6.75;;
57593;SDS011;43423;46.510;6.686;2023-05-06T11:16:49;12.45;;;8.07;;
57593;SDS011;43423;46.510;6.686;2023-05-06T11:19:19;9.30;;;5.68;;
57593;SDS011;43423;46.510;6.686;2023-05-06T11:21:47;8.82;;;4.68;;
57593;SDS011;43423;46.510;6.686;2023-05-06T11:24:13;6.13;;;5.15;;
57593;SDS011;43423;46.510;6.686;2023-05-06T11:26:39;5.40;;;4.50;;
57593;SDS011;43423;46.510;6.686;2023-05-06T11:29:06;9.98;;;6.55;;
57593;SDS011;43423;46.510;6.686;2023-05-06T11:31:36;12.50;;;7.55;;
57593;SDS011;43423;46.510;6.686;2023-05-06T11:34:04;8.13;;;6.32;;
57593;SDS011;43423;46.510;6.686;2023-05-06T11:36:33;9.98;;;6.30;;
57593;SDS011;43423;46.510;6.686;2023-05-06T11:39:02;7.93;;;6.43;;
57593;SDS011;43423;46.510;6.686;2023-05-06T11:41:30;8.15;;;5.78;;
57593;SDS011;43423;46.510;6.686;2023-05-06T11:43:56;11.32;;;6.65;;
57593;SDS011;43423;46.510;6.686;2023-05-06T11:46:22;8.10;;;5.70;;
57593;SDS011;43423;46.510;6.686;2023-05-06T11:48:49;8.07;;;5.50;;
57593;SDS011;43423;46.510;6.686;2023-05-06T11:51:20;10.90;;;5.90;;
57593;SDS011;43423;46.510;6.686;2023-05-06T11:56:11;9.50;;;5.53;;
57593;SDS011;43423;46.510;6.686;2023-05-06T11:58:38;8.57;;;5.25;;
57593;SDS011;43423;46.510;6.686;2023-05-06T12:01:03;8.98;;;5.60;;
57593;SDS011;43423;46.510;6.686;2023-05-06T12:03:30;9.82;;;4.82;;
57593;SDS011;43423;46.510;6.686;2023-05-06T12:05:56;11.98;;;4.43;;
57593;SDS011;43423;46.510;6.686;2023-05-06T12:08:26;5.80;;;3.80;;
57593;SDS011;43423;46.510;6.686;2023-05-06T12:11:00;5.20;;;4.25;;
57593;SDS011;43423;46.510;6.686;2023-05-06T12:13:28;6.50;;;4.60;;
57593;SDS011;43423;46.510;6.686;2023-05-06T12:15:54;7.60;;;4.45;;
57593;SDS011;43423;46.510;6.686;2023-05-06T12:18:22;5.10;;;4.07;;
57593;SDS011;43423;46.510;6.686;2023-05-06T12:20:48;7.35;;;3.53;;
57593;SDS011;43423;46.510;6.686;2023-05-06T12:23:14;4.40;;;3.22;;
57593;SDS011;43423;46.510;6.686;2023-05-06T12:25:41;7.72;;;4.57;;
57593;SDS011;43423;46.510;6.686;2023-05-06T12:28:16;6.65;;;3.67;;
57593;SDS011;43423;46.510;6.686;2023-05-06T12:30:43;7.18;;;4.28;;
57593;SDS011;43423;46.510;6.686;2023-05-06T12:33:10;5.45;;;3.85;;
57593;SDS011;43423;46.510;6.686;2023-05-06T12:35:36;4.22;;;3.75;;
57593;SDS011;43423;46.510;6.686;2023-05-06T12:38:14;5.38;;;3.75;;
57593;SDS011;43423;46.510;6.686;2023-05-06T12:40:41;6.72;;;3.30;;
57593;SDS011;43423;46.510;6.686;2023-05-06T12:43:08;4.18;;;3.30;;
57593;SDS011;43423;46.510;6.686;2023-05-06T12:45:35;16.70;;;3.88;;
57593;SDS011;43423;46.510;6.686;2023-05-06T12:48:03;5.15;;;3.53;;
57593;SDS011;43423;46.510;6.686;2023-05-06T12:53:04;4.15;;;3.13;;
57593;SDS011;43423;46.510;6.686;2023-05-06T12:55:31;10.52;;;3.45;;
57593;SDS011;43423;46.510;6.686;2023-05-06T12:57:58;5.10;;;3.45;;
57593;SDS011;43423;46.510;6.686;2023-05-06T13:00:24;6.30;;;3.53;;
57593;SDS011;43423;46.510;6.686;2023-05-06T13:02:49;5.72;;;3.15;;
57593;SDS011;43423;46.510;6.686;2023-05-06T13:05:15;4.10;;;3.20;;
57593;SDS011;43423;46.510;6.686;2023-05-06T13:07:40;5.32;;;3.97;;
57593;SDS011;43423;46.510;6.686;2023-05-06T13:10:06;5.78;;;3.75;;
57593;SDS011;43423;46.510;6.686;2023-05-06T13:12:32;11.05;;;4.90;;
57593;SDS011;43423;46.510;6.686;2023-05-06T13:14:58;8.23;;;4.05;;
57593;SDS011;43423;46.510;6.686;2023-05-06T13:17:24;7.43;;;3.53;;
57593;SDS011;43423;46.510;6.686;2023-05-06T13:19:51;7.45;;;3.88;;
57593;SDS011;43423;46.510;6.686;2023-05-06T13:22:16;5.95;;;3.63;;
57593;SDS011;43423;46.510;6.686;2023-05-06T13:24:42;4.47;;;3.28;;
57593;SDS011;43423;46.510;6.686;2023-05-06T13:27:08;10.25;;;4.13;;
57593;SDS011;43423;46.510;6.686;2023-05-06T13:29:33;4.38;;;2.83;;
57593;SDS011;43423;46.510;6.686;2023-05-06T13:31:59;5.35;;;3.38;;
57593;SDS011;43423;46.510;6.686;2023-05-06T13:34:25;6.90;;;3.55;;
57593;SDS011;43423;46.510;6.686;2023-05-06T13:36:51;5.15;;;3.50;;
57593;SDS011;43423;46.510;6.686;2023-05-06T13:39:19;6.75;;;3.60;;
57593;SDS011;43423;46.510;6.686;2023-05-06T13:41:45;5.68;;;3.30;;
57593;SDS011;43423;46.510;6.686;2023-05-06T13:44:12;4.82;;;3.42;;
57593;SDS011;43423;46.510;6.686;2023-05-06T13:46:38;3.88;;;2.95;;
57593;SDS011;43423;46.510;6.686;2023-05-06T13:49:04;5.18;;;3.33;;
57593;SDS011;43423;46.510;6.686;2023-05-06T13:51:29;4.05;;;3.08;;
57593;SDS011;43423;46.510;6.686;2023-05-06T13:53:57;4.70;;;3.20;;
57593;SDS011;43423;46.510;6.686;2023-05-06T13:56:23;5.47;;;3.30;;
57593;SDS011;43423;46.510;6.686;2023-05-06T13:58:49;11.15;;;3.35;;
57593;SDS011;43423;46.510;6.686;2023-05-06T14:01:14;7.03;;;3.20;;
57593;SDS011;43423;46.510;6.686;2023-05-06T14:03:40;5.28;;;3.40;;
57593;SDS011;43423;46.510;6.686;2023-05-06T14:06:06;4.70;;;3.08;;
57593;SDS011;43423;46.510;6.686;2023-05-06T14:08:33;5.70;;;3.20;;
57593;SDS011;43423;46.510;6.686;2023-05-06T14:10:59;6.38;;;2.75;;
57593;SDS011;43423;46.510;6.686;2023-05-06T14:13:26;3.40;;;2.95;;
57593;SDS011;43423;46.510;6.686;2023-05-06T14:15:54;5.40;;;2.93;;
57593;SDS011;43423;46.510;6.686;2023-05-06T14:18:20;7.03;;;3.40;;
57593;SDS011;43423;46.510;6.686;2023-05-06T14:20:45;3.50;;;2.85;;
57593;SDS011;43423;46.510;6.686;2023-05-06T14:23:11;3.00;;;2.70;;
57593;SDS011;43423;46.510;6.686;2023-05-06T14:25:36;3.38;;;2.50;;
57593;SDS011;43423;46.510;6.686;2023-05-06T14:28:02;4.25;;;2.83;;
57593;SDS011;43423;46.510;6.686;2023-05-06T14:30:27;4.28;;;2.95;;
57593;SDS011;43423;46.510;6.686;2023-05-06T14:32:53;6.70;;;3.20;;
57593;SDS011;43423;46.510;6.686;2023-05-06T14:35:18;4.63;;;3.22;;
57593;SDS011;43423;46.510;6.686;2023-05-06T14:37:44;6.18;;;3.20;;
57593;SDS011;43423;46.510;6.686;2023-05-06T14:40:10;6.57;;;3.17;;
57593;SDS011;43423;46.510;6.686;2023-05-06T14:42:36;7.35;;;3.90;;
57593;SDS011;43423;46.510;6.686;2023-05-06T14:45:02;5.93;;;3.70;;
57593;SDS011;43423;46.510;6.686;2023-05-06T14:47:28;6.40;;;3.80;;
57593;SDS011;43423;46.510;6.686;2023-05-06T14:49:53;5.57;;;3.53;;
57593;SDS011;43423;46.510;6.686;2023-05-06T14:52:19;3.30;;;3.00;;
57593;SDS011;43423;46.510;6.686;2023-05-06T14:54:45;5.18;;;3.20;;
57593;SDS011;43423;46.510;6.686;2023-05-06T14:57:12;7.97;;;3.20;;
57593;SDS011;43423;46.510;6.686;2023-05-06T14:59:37;3.08;;;2.70;;
57593;SDS011;43423;46.510;6.686;2023-05-06T15:02:03;7.47;;;3.20;;
57593;SDS011;43423;46.510;6.686;2023-05-06T15:04:30;9.90;;;3.00;;